createdAt,value
2018-02-05T04:32:38.008Z,32.92
2018-02-05T04:35:11.782Z,34.97
2018-02-05T04:37:45.497Z,33.45
2018-02-05T04:40:19.341Z,31.92
2018-02-05T04:42:53.136Z,32.92
2018-02-05T04:45:26.948Z,34.28
2018-02-05T04:48:01.063Z,33.85
2018-02-05T04:50:34.783Z,32.50
2018-02-05T04:53:08.507Z,32.30
2018-02-05T04:55:42.471Z,35.95
2018-02-05T04:58:34.868Z,30.88
2018-02-05T05:01:08.626Z,27.73
2018-02-05T05:03:42.436Z,34.35
2018-02-05T05:06:16.947Z,29.40
2018-02-05T05:08:50.657Z,30.75
2018-02-05T05:11:25.872Z,30.40
2018-02-05T05:14:00.467Z,28.33
2018-02-05T05:16:37.577Z,30.40
2018-02-05T05:19:12.109Z,32.15
2018-02-05T05:21:45.928Z,31.73
2018-02-05T05:24:20.452Z,27.52
2018-02-05T05:26:54.159Z,30.92
2018-02-05T05:29:27.819Z,30.95
2018-02-05T05:32:01.676Z,31.05
2018-02-05T05:34:35.272Z,29.17
2018-02-05T05:37:09.333Z,34.03
2018-02-05T05:39:43.877Z,27.98
2018-02-05T05:42:17.706Z,30.55
2018-02-05T05:44:51.457Z,30.05
2018-02-05T05:47:25.345Z,30.40
2018-02-05T05:49:59.116Z,33.08
2018-02-05T05:52:33.637Z,32.40
2018-02-05T05:55:07.486Z,29.87
2018-02-05T05:57:42.280Z,29.87
2018-02-05T06:00:17.920Z,28.17
2018-02-05T06:02:52.096Z,31.87
2018-02-05T06:05:25.760Z,31.15
2018-02-05T06:07:59.848Z,40.40
2018-02-05T06:10:33.918Z,32.78
2018-02-05T06:13:08.551Z,34.63
2018-02-05T06:15:42.654Z,29.95
2018-02-05T06:18:16.325Z,35.70
2018-02-05T06:20:50.158Z,34.58
2018-02-05T06:23:24.656Z,31.87
2018-02-05T06:25:58.329Z,33.30
2018-02-05T06:28:32.111Z,28.98
2018-02-05T06:31:05.867Z,30.88
2018-02-05T06:33:42.032Z,29.10
2018-02-05T06:36:15.824Z,32.28
2018-02-05T06:38:49.664Z,32.90
2018-02-05T06:41:23.523Z,31.85
2018-02-05T06:43:58.252Z,32.80
2018-02-05T06:46:32.100Z,41.25
2018-02-05T06:49:07.663Z,36.30
2018-02-05T06:51:53.372Z,32.05
2018-02-05T06:54:38.996Z,32.42
2018-02-05T06:57:12.843Z,34.15
2018-02-05T06:59:47.420Z,31.92
2018-02-05T07:02:21.214Z,35.35
2018-02-05T07:04:55.001Z,31.35
2018-02-05T07:07:28.696Z,36.95
2018-02-05T07:10:03.157Z,33.95
2018-02-05T07:12:37.869Z,34.45
2018-02-05T07:15:11.712Z,35.75
2018-02-05T07:17:46.359Z,33.33
2018-02-05T07:20:20.308Z,31.45
2018-02-05T07:22:54.189Z,31.17
2018-02-05T07:25:28.003Z,29.63
2018-02-05T07:28:01.797Z,33.20
2018-02-05T07:30:35.571Z,34.30
2018-02-05T07:33:09.412Z,33.90
2018-02-05T07:35:47.916Z,36.75
2018-02-05T07:38:23.820Z,33.47
2018-02-05T07:40:57.595Z,48.10
2018-02-05T07:43:32.200Z,31.05
2018-02-05T07:46:05.925Z,31.37
2018-02-05T07:48:40.179Z,32.05
2018-02-05T07:51:15.064Z,33.75
2018-02-05T07:53:48.992Z,29.90
2018-02-05T07:56:23.524Z,33.58
2018-02-05T07:58:57.590Z,30.67
2018-02-05T08:01:35.114Z,28.55
2018-02-05T08:04:10.151Z,34.75
2018-02-05T08:06:47.610Z,30.50
2018-02-05T08:09:21.667Z,31.02
2018-02-05T08:11:56.246Z,35.38
2018-02-05T08:14:30.098Z,29.12
2018-02-05T08:17:04.762Z,34.47
2018-02-05T08:19:38.560Z,33.22
2018-02-05T08:22:12.532Z,34.92
2018-02-05T08:24:47.086Z,35.80
2018-02-05T08:27:22.487Z,33.78
2018-02-05T08:29:57.023Z,31.50
2018-02-05T08:32:30.769Z,29.30
2018-02-05T08:35:09.872Z,31.52
2018-02-05T08:37:43.727Z,34.72
2018-02-05T08:40:18.324Z,30.90
2018-02-05T08:42:52.841Z,31.30
2018-02-05T08:45:26.707Z,31.75
2018-02-05T08:48:00.615Z,36.38
2018-02-05T08:50:34.506Z,27.58
2018-02-05T08:53:08.389Z,31.85
2018-02-05T08:55:45.772Z,33.40
2018-02-05T08:58:20.183Z,33.40
2018-02-05T09:00:54.024Z,31.52
2018-02-05T09:03:27.733Z,28.85
2018-02-05T09:06:01.508Z,32.58
2018-02-05T09:08:35.500Z,29.65
2018-02-05T09:11:10.355Z,29.27
2018-02-05T09:13:44.143Z,33.17
2018-02-05T09:16:17.972Z,34.90
2018-02-05T09:18:52.045Z,27.95
2018-02-05T09:21:25.873Z,29.45
2018-02-05T09:24:00.610Z,30.10
2018-02-05T09:26:35.233Z,28.12
2018-02-05T09:29:09.245Z,24.27
2018-02-05T09:31:44.166Z,25.23
2018-02-05T09:34:17.915Z,23.60
2018-02-05T09:36:52.468Z,29.20
2018-02-05T09:39:26.520Z,23.08
2018-02-05T09:42:00.217Z,26.70
2018-02-05T09:44:34.234Z,24.42
2018-02-05T09:47:08.165Z,22.67
2018-02-05T09:52:22.702Z,20.88
2018-02-05T09:54:57.251Z,19.33
2018-02-05T09:57:31.044Z,21.42
2018-02-05T10:00:04.893Z,25.20
2018-02-05T10:02:39.642Z,18.65
2018-02-05T10:05:13.447Z,22.10
2018-02-05T10:07:47.983Z,22.35
2018-02-05T10:10:21.811Z,18.98
2018-02-05T10:12:55.495Z,19.87
2018-02-05T10:15:29.331Z,18.75
2018-02-05T10:18:04.680Z,19.23
2018-02-05T10:20:39.181Z,20.05
2018-02-05T10:23:12.961Z,22.55
2018-02-05T10:25:46.715Z,19.12
2018-02-05T10:28:20.517Z,19.92
2018-02-05T10:30:54.341Z,22.48
2018-02-05T10:33:28.232Z,24.42
2018-02-05T10:36:05.799Z,18.62
2018-02-05T10:38:39.597Z,20.48
2018-02-05T10:41:13.476Z,16.45
2018-02-05T10:43:47.297Z,19.95
2018-02-05T10:46:21.125Z,19.52
2018-02-05T10:48:55.261Z,18.08
2018-02-05T10:51:28.872Z,16.90
2018-02-05T10:54:02.661Z,20.33
2018-02-05T10:56:36.503Z,17.10
2018-02-05T10:59:11.280Z,16.87
2018-02-05T11:01:45.124Z,17.48
2018-02-05T11:04:24.436Z,18.80
2018-02-05T11:06:58.153Z,17.25
2018-02-05T11:09:32.659Z,18.40
2018-02-05T11:12:06.380Z,19.40
2018-02-05T11:14:40.229Z,13.43
2018-02-05T11:17:13.949Z,19.45
2018-02-05T11:19:47.713Z,17.30
2018-02-05T11:22:21.491Z,18.27
2018-02-05T11:24:56.050Z,13.07
2018-02-05T11:27:29.907Z,15.55
2018-02-05T11:30:03.631Z,19.42
2018-02-05T11:32:38.026Z,15.65
2018-02-05T11:35:12.114Z,21.55
2018-02-05T11:37:45.878Z,15.10
2018-02-05T11:40:19.614Z,16.30
2018-02-05T11:42:53.327Z,14.50
2018-02-05T11:45:28.522Z,19.42
2018-02-05T11:48:02.318Z,13.80
2018-02-05T11:50:37.115Z,16.12
2018-02-05T11:53:11.033Z,15.85
2018-02-05T11:55:45.722Z,14.18
2018-02-05T11:58:19.444Z,12.55
2018-02-05T12:00:53.612Z,20.00
2018-02-05T12:03:28.158Z,17.08
2018-02-05T12:06:01.927Z,13.90
2018-02-05T12:08:37.487Z,16.50
2018-02-05T12:11:11.558Z,16.52
2018-02-05T12:13:46.207Z,13.07
2018-02-05T12:16:20.307Z,22.48
2018-02-05T12:18:55.024Z,17.48
2018-02-05T12:21:28.827Z,16.30
2018-02-05T12:24:02.553Z,14.50
2018-02-05T12:26:36.275Z,14.10
2018-02-05T12:29:10.048Z,14.30
2018-02-05T12:31:43.999Z,14.82
2018-02-05T12:34:17.696Z,15.32
2018-02-05T12:36:51.697Z,15.45
2018-02-05T12:39:26.193Z,16.70
2018-02-05T12:42:02.736Z,14.52
2018-02-05T12:44:42.650Z,16.12
2018-02-05T12:47:16.592Z,18.55
2018-02-05T12:49:50.294Z,19.17
2018-02-05T12:52:30.879Z,18.73
2018-02-05T12:55:04.636Z,18.10
2018-02-05T12:57:39.151Z,12.45
2018-02-05T13:13:34.876Z,11.52
2018-02-05T13:16:08.699Z,14.10
2018-02-05T13:18:42.480Z,14.60
2018-02-05T13:21:16.250Z,11.55
2018-02-05T13:23:50.076Z,14.30
2018-02-05T13:26:23.814Z,11.32
2018-02-05T13:28:57.585Z,10.30
2018-02-05T13:31:31.300Z,15.98
2018-02-05T13:34:04.985Z,16.08
2018-02-05T13:36:39.600Z,16.62
2018-02-05T13:39:13.483Z,14.30
2018-02-05T13:41:47.228Z,12.68
2018-02-05T13:44:20.939Z,14.43
2018-02-05T13:46:55.441Z,12.07
2018-02-05T13:49:30.678Z,12.60
2018-02-05T13:52:05.506Z,8.25
2018-02-05T13:54:39.742Z,13.68
2018-02-05T13:57:13.473Z,9.20
2018-02-05T13:59:47.191Z,10.95
2018-02-05T14:02:20.971Z,13.30
2018-02-05T14:04:55.561Z,12.02
2018-02-05T14:07:35.326Z,12.77
2018-02-05T14:10:10.350Z,12.95
2018-02-05T14:12:44.048Z,10.80
2018-02-05T14:15:17.878Z,13.82
2018-02-05T14:17:51.703Z,13.95
2018-02-05T14:20:25.488Z,13.35
2018-02-05T14:23:00.296Z,9.70
2018-02-05T14:25:33.976Z,12.30
2018-02-05T14:28:07.645Z,23.45
2018-02-05T14:30:42.128Z,13.75
2018-02-05T14:33:15.775Z,12.93
2018-02-05T14:35:49.544Z,14.95
2018-02-05T14:38:24.154Z,14.18
2018-02-05T14:40:57.955Z,17.85
2018-02-05T14:43:31.769Z,13.32
2018-02-05T14:46:05.455Z,18.05
2018-02-05T14:48:39.234Z,17.08
2018-02-05T14:51:13.786Z,15.77
2018-02-05T14:53:47.844Z,15.23
2018-02-05T14:56:22.480Z,14.27
2018-02-05T14:58:56.258Z,12.32
2018-02-05T15:01:30.092Z,14.63
2018-02-05T15:04:03.872Z,12.95
2018-02-05T15:06:37.757Z,11.65
2018-02-05T15:09:11.821Z,16.83
2018-02-05T15:11:46.307Z,9.55
2018-02-05T15:14:20.827Z,11.20
2018-02-05T15:16:54.663Z,11.60
2018-02-05T15:19:29.472Z,14.55
2018-02-05T15:22:03.250Z,12.25
2018-02-05T15:24:37.083Z,9.90
2018-02-05T15:27:10.821Z,11.40
2018-02-05T15:29:45.376Z,11.85
2018-02-05T15:32:19.223Z,17.70
2018-02-05T15:34:53.637Z,13.07
2018-02-05T15:37:27.464Z,15.98
2018-02-05T15:40:01.732Z,11.27
2018-02-05T15:42:36.657Z,11.25
2018-02-05T15:45:10.604Z,13.35
2018-02-05T15:47:44.396Z,11.55
2018-02-05T15:50:18.968Z,11.80
2018-02-05T15:52:52.827Z,13.77
2018-02-05T15:55:26.610Z,11.25
2018-02-05T15:58:00.312Z,13.32
2018-02-05T16:00:34.897Z,17.92
2018-02-05T16:03:09.335Z,13.27
2018-02-05T16:05:44.241Z,14.25
2018-02-05T16:08:17.823Z,12.20
2018-02-05T16:10:51.830Z,18.02
2018-02-05T16:13:26.446Z,13.48
2018-02-05T16:16:00.151Z,13.75
2018-02-05T16:18:33.968Z,13.55
2018-02-05T16:21:08.120Z,13.90
2018-02-05T16:23:42.624Z,20.20
2018-02-05T16:26:16.408Z,16.70
2018-02-05T16:28:50.183Z,11.35
2018-02-05T16:31:24.049Z,12.95
2018-02-05T16:33:57.899Z,16.67
2018-02-05T16:36:31.963Z,18.23
2018-02-05T16:39:05.687Z,13.02
2018-02-05T16:41:39.546Z,12.43
2018-02-05T16:44:13.180Z,12.23
2018-02-05T16:46:47.012Z,12.00
2018-02-05T16:49:21.617Z,20.70
2018-02-05T16:51:56.103Z,16.60
2018-02-05T16:54:29.865Z,16.42
2018-02-05T16:57:03.606Z,17.05
2018-02-05T16:59:37.584Z,13.75
2018-02-05T17:02:12.353Z,20.08
2018-02-05T17:04:46.202Z,14.90
2018-02-05T17:07:20.812Z,16.30
2018-02-05T17:09:54.948Z,17.37
2018-02-05T17:12:29.311Z,14.82
2018-02-05T17:15:03.664Z,24.05
2018-02-05T17:17:38.189Z,17.30
2018-02-05T17:20:11.984Z,18.52
2018-02-05T17:22:45.719Z,14.35
2018-02-05T17:25:19.583Z,15.77
2018-02-05T17:27:53.508Z,13.43
2018-02-05T17:30:27.299Z,15.25
2018-02-05T17:33:01.819Z,15.82
2018-02-05T17:35:35.651Z,16.48
2018-02-05T17:38:09.454Z,16.30
2018-02-05T17:40:44.074Z,18.17
2018-02-05T17:43:17.888Z,16.17
2018-02-05T17:45:51.731Z,24.75
2018-02-05T17:48:25.473Z,36.75
2018-02-05T17:51:00.480Z,18.02
2018-02-05T17:53:34.197Z,20.30
2018-02-05T17:56:07.905Z,14.48
2018-02-05T17:58:41.748Z,16.08
2018-02-05T18:01:15.564Z,17.12
2018-02-05T18:03:50.251Z,15.88
2018-02-05T18:06:25.587Z,17.48
2018-02-05T18:08:59.758Z,12.93
2018-02-05T18:11:33.604Z,16.52
2018-02-05T18:14:08.531Z,19.92
2018-02-05T18:16:42.312Z,20.12
2018-02-05T18:19:17.650Z,19.27
2018-02-05T18:21:51.597Z,14.00
2018-02-05T18:24:25.451Z,17.05
2018-02-05T18:27:00.785Z,23.45
2018-02-05T18:29:35.343Z,17.60
2018-02-05T18:32:10.008Z,18.25
2018-02-05T18:34:43.863Z,19.08
2018-02-05T18:37:17.949Z,21.05
2018-02-05T18:39:51.727Z,20.08
2018-02-05T18:42:25.468Z,21.60
2018-02-05T18:45:00.060Z,23.55
2018-02-05T18:47:33.898Z,18.12
2018-02-05T18:50:07.603Z,20.02
2018-02-05T18:52:41.402Z,29.95
2018-02-05T18:55:15.199Z,22.48
2018-02-05T18:57:49.317Z,20.42
2018-02-05T19:00:36.422Z,15.70
2018-02-05T19:03:10.204Z,19.75
2018-02-05T19:05:44.727Z,21.35
2018-02-05T19:08:19.351Z,18.37
2018-02-05T19:10:53.989Z,21.80
2018-02-05T19:13:27.726Z,20.80
2018-02-05T19:16:02.324Z,20.50
2018-02-05T19:18:36.189Z,21.08
2018-02-05T19:21:11.044Z,20.42
2018-02-05T19:23:44.867Z,17.25
2018-02-05T19:26:19.530Z,21.70
2018-02-05T19:28:53.396Z,20.20
2018-02-05T19:31:27.125Z,19.65
2018-02-05T19:34:01.016Z,20.00
2018-02-05T19:36:34.851Z,20.30
2018-02-05T19:39:09.464Z,23.87
2018-02-05T19:41:44.114Z,22.23
2018-02-05T19:44:17.960Z,23.87
2018-02-05T19:46:52.364Z,24.77
2018-02-05T19:49:26.139Z,19.25
2018-02-05T19:51:59.998Z,20.42
2018-02-05T19:54:33.768Z,22.67
2018-02-05T19:57:08.406Z,19.35
2018-02-05T19:59:42.178Z,22.20
2018-02-05T20:02:15.974Z,21.33
2018-02-05T20:04:50.560Z,24.08
2018-02-05T20:07:26.466Z,23.23
2018-02-05T20:10:00.375Z,20.85
2018-02-05T20:12:34.432Z,20.73
2018-02-05T20:15:08.425Z,22.35
2018-02-05T20:17:42.203Z,31.27
2018-02-05T20:20:16.016Z,24.27
2018-02-05T20:22:49.843Z,21.80
2018-02-05T20:25:23.632Z,23.45
2018-02-05T20:27:57.588Z,25.17
2018-02-05T20:30:31.772Z,22.70
2018-02-05T20:33:07.280Z,25.20
2018-02-05T20:35:41.064Z,24.02
2018-02-05T20:38:14.854Z,21.77
2018-02-05T20:40:49.415Z,20.35
2018-02-05T20:43:24.066Z,22.60
2018-02-05T20:45:57.885Z,19.80
2018-02-05T20:48:32.472Z,23.08
2018-02-05T20:51:06.737Z,24.42
2018-02-05T20:53:40.444Z,22.15
2018-02-05T20:56:14.365Z,22.27
2018-02-05T20:58:48.837Z,22.70
2018-02-05T21:01:23.465Z,20.23
2018-02-05T21:03:57.971Z,23.50
2018-02-05T21:06:31.717Z,23.20
2018-02-05T21:09:07.630Z,19.10
2018-02-05T21:11:41.275Z,21.20
2018-02-05T21:14:15.855Z,22.75
2018-02-05T21:16:50.350Z,18.98
2018-02-05T21:19:24.383Z,21.55
2018-02-05T21:21:58.780Z,20.45
2018-02-05T21:24:32.564Z,18.35
2018-02-05T21:27:06.263Z,25.55
2018-02-05T21:29:40.090Z,22.05
2018-02-05T21:32:14.611Z,18.83
2018-02-05T21:34:48.724Z,20.00
2018-02-05T21:37:22.338Z,17.42
2018-02-05T21:39:56.091Z,21.75
2018-02-05T21:42:29.879Z,22.05
2018-02-05T21:45:03.760Z,19.17
2018-02-05T21:47:37.570Z,20.62
2018-02-05T21:50:11.419Z,19.98
2018-02-05T21:52:45.103Z,21.60
2018-02-05T21:55:18.829Z,21.60
2018-02-05T21:57:52.698Z,22.60
